CSN6743 ZJSY-ZGGG
Flight info
| Callsign | CSN6743 |
|---|---|
| Flight time | 1h 9m |
| Altitude | 35100 |
| Route | PORAP1N PORAP W222 NUMKU W223 AGTEL W71 LH DCT GYA GYA7 |
| Aircraft | A321/M-SDE3FGHIRWY/LB1 |
Departure
| Time | 2026-05-04 13:47 |
|---|---|
| Airport | Sanya Phoenix International Airport (ZJSY) |
Arrival
| Time | 2026-05-04 14:56 |
|---|---|
| Airport | Guangzhou Baiyun International Airport (ZGGG) |
| Time | Latitude | Longitude | Altitude | Speed | Heading |
|---|---|---|---|---|---|
| 2026-05-04 13:08 | 18.30629 | 109.41057 | 84 ft | 0 kts | 82° |
| 2026-05-04 13:36 | 18.30631 | 109.41070 | 84 ft | 5 kts | 82° |
| 2026-05-04 13:36 | 18.30617 | 109.41122 | 87 ft | 11 kts | 144° |
| 2026-05-04 13:37 | 18.30524 | 109.41139 | 87 ft | 12 kts | 172° |
| 2026-05-04 13:37 | 18.30451 | 109.41112 | 87 ft | 14 kts | 248° |
| 2026-05-04 13:37 | 18.30436 | 109.41003 | 83 ft | 17 kts | 262° |
| 2026-05-04 13:37 | 18.30416 | 109.40852 | 86 ft | 25 kts | 262° |
| 2026-05-04 13:38 | 18.30390 | 109.40651 | 80 ft | 24 kts | 262° |
| 2026-05-04 13:38 | 18.30367 | 109.40472 | 73 ft | 24 kts | 261° |
| 2026-05-04 13:38 | 18.30345 | 109.40297 | 75 ft | 26 kts | 263° |
| 2026-05-04 13:38 | 18.30322 | 109.40133 | 71 ft | 23 kts | 261° |
| 2026-05-04 13:39 | 18.30302 | 109.39974 | 71 ft | 19 kts | 262° |
| 2026-05-04 13:39 | 18.30285 | 109.39841 | 71 ft | 16 kts | 262° |
| 2026-05-04 13:39 | 18.30273 | 109.39750 | 71 ft | 0 kts | 262° |
| 2026-05-04 13:42 | 18.30264 | 109.39690 | 73 ft | 10 kts | 258° |
| 2026-05-04 13:42 | 18.30221 | 109.39643 | 70 ft | 3 kts | 202° |
| 2026-05-04 13:42 | 18.30205 | 109.39637 | 66 ft | 4 kts | 197° |
| 2026-05-04 13:42 | 18.30183 | 109.39633 | 71 ft | 0 kts | 186° |
| 2026-05-04 13:43 | 18.30179 | 109.39633 | 72 ft | 3 kts | 183° |
| 2026-05-04 13:44 | 18.30130 | 109.39637 | 74 ft | 11 kts | 175° |
| 2026-05-04 13:44 | 18.30090 | 109.39700 | 67 ft | 11 kts | 83° |
| 2026-05-04 13:44 | 18.30090 | 109.39704 | 72 ft | 0 kts | 83° |
| 2026-05-04 13:46 | 18.30094 | 109.39728 | 72 ft | 12 kts | 81° |
| 2026-05-04 13:46 | 18.30137 | 109.40049 | 77 ft | 78 kts | 82° |
| 2026-05-04 13:46 | 18.30239 | 109.40816 | 79 ft | 132 kts | 81° |
| 2026-05-04 13:46 | 18.30393 | 109.41918 | 100 ft | 171 kts | 79° |
| 2026-05-04 13:47 | 18.30592 | 109.43106 | 793 ft | 157 kts | 79° |
| 2026-05-04 13:47 | 18.30752 | 109.44277 | 1206 ft | 165 kts | 83° |
| 2026-05-04 13:47 | 18.30888 | 109.45531 | 1484 ft | 182 kts | 83° |
| 2026-05-04 13:47 | 18.31057 | 109.46912 | 1721 ft | 200 kts | 82° |
| 2026-05-04 13:48 | 18.31260 | 109.48438 | 1859 ft | 222 kts | 81° |
| 2026-05-04 13:48 | 18.31487 | 109.50094 | 2237 ft | 233 kts | 82° |
| 2026-05-04 13:48 | 18.31719 | 109.51795 | 2826 ft | 237 kts | 82° |
| 2026-05-04 13:48 | 18.32158 | 109.53459 | 3528 ft | 240 kts | 58° |
| 2026-05-04 13:49 | 18.33392 | 109.54639 | 4202 ft | 245 kts | 30° |
| 2026-05-04 13:49 | 18.34960 | 109.55379 | 4885 ft | 248 kts | 21° |
| 2026-05-04 13:49 | 18.36600 | 109.55984 | 5540 ft | 252 kts | 20° |
| 2026-05-04 13:49 | 18.38268 | 109.56595 | 6192 ft | 254 kts | 20° |
| 2026-05-04 13:50 | 18.39936 | 109.57250 | 6817 ft | 257 kts | 21° |
| 2026-05-04 13:50 | 18.41608 | 109.57955 | 7426 ft | 260 kts | 22° |
| 2026-05-04 13:50 | 18.43287 | 109.58700 | 8003 ft | 264 kts | 23° |
| 2026-05-04 13:50 | 18.44960 | 109.59469 | 8585 ft | 268 kts | 24° |
| 2026-05-04 13:51 | 18.46698 | 109.60287 | 9175 ft | 272 kts | 24° |
| 2026-05-04 13:51 | 18.48430 | 109.61111 | 9753 ft | 275 kts | 24° |
| 2026-05-04 13:51 | 18.50192 | 109.61951 | 10136 ft | 287 kts | 24° |
| 2026-05-04 13:51 | 18.52083 | 109.62854 | 10261 ft | 308 kts | 24° |
| 2026-05-04 13:52 | 18.56206 | 109.64827 | 10515 ft | 346 kts | 24° |
| 2026-05-04 13:52 | 18.58458 | 109.65909 | 10908 ft | 354 kts | 24° |
| 2026-05-04 13:52 | 18.60715 | 109.66994 | 11437 ft | 358 kts | 24° |
| 2026-05-04 13:53 | 18.62994 | 109.68087 | 11979 ft | 361 kts | 23° |
| 2026-05-04 13:53 | 18.65295 | 109.69188 | 12521 ft | 365 kts | 23° |
| 2026-05-04 13:53 | 18.67585 | 109.70281 | 13047 ft | 368 kts | 23° |
| 2026-05-04 13:54 | 18.72281 | 109.72531 | 14072 ft | 374 kts | 22° |
| 2026-05-04 13:54 | 18.74660 | 109.73674 | 14540 ft | 377 kts | 22° |
| 2026-05-04 13:54 | 18.79476 | 109.75987 | 15473 ft | 384 kts | 22° |
| 2026-05-04 13:55 | 18.81916 | 109.77160 | 15928 ft | 387 kts | 22° |
| 2026-05-04 13:55 | 18.86857 | 109.79534 | 16827 ft | 393 kts | 22° |
| 2026-05-04 13:55 | 18.89356 | 109.80739 | 17271 ft | 397 kts | 22° |
| 2026-05-04 13:56 | 18.91913 | 109.81971 | 17704 ft | 400 kts | 22° |
| 2026-05-04 13:56 | 18.94451 | 109.83193 | 18147 ft | 403 kts | 22° |
| 2026-05-04 13:56 | 18.99595 | 109.85661 | 18898 ft | 409 kts | 22° |
| 2026-05-04 13:57 | 19.02193 | 109.86911 | 19253 ft | 411 kts | 22° |
| 2026-05-04 13:57 | 19.04802 | 109.88168 | 19599 ft | 414 kts | 22° |
| 2026-05-04 13:58 | 19.12733 | 109.91996 | 20643 ft | 421 kts | 22° |
| 2026-05-04 13:58 | 19.18099 | 109.94580 | 21316 ft | 426 kts | 21° |
| 2026-05-04 13:58 | 19.20811 | 109.95884 | 21649 ft | 429 kts | 21° |
| 2026-05-04 13:59 | 19.23504 | 109.97180 | 21975 ft | 431 kts | 21° |
| 2026-05-04 13:59 | 19.26277 | 109.98518 | 22309 ft | 434 kts | 21° |
| 2026-05-04 13:59 | 19.31826 | 110.01112 | 22947 ft | 438 kts | 20° |
| 2026-05-04 14:00 | 19.34623 | 110.02412 | 23256 ft | 440 kts | 21° |
| 2026-05-04 14:00 | 19.40202 | 110.05075 | 23821 ft | 445 kts | 21° |
| 2026-05-04 14:00 | 19.43061 | 110.06463 | 24073 ft | 447 kts | 21° |
| 2026-05-04 14:01 | 19.45854 | 110.07824 | 24333 ft | 449 kts | 21° |
| 2026-05-04 14:01 | 19.48701 | 110.09211 | 24581 ft | 451 kts | 21° |
| 2026-05-04 14:01 | 19.54432 | 110.11990 | 25096 ft | 455 kts | 21° |
| 2026-05-04 14:02 | 19.57315 | 110.13384 | 25353 ft | 457 kts | 21° |
| 2026-05-04 14:02 | 19.60214 | 110.14783 | 25607 ft | 458 kts | 21° |
| 2026-05-04 14:02 | 19.63123 | 110.16184 | 25856 ft | 460 kts | 21° |
| 2026-05-04 14:02 | 19.66044 | 110.17595 | 26104 ft | 462 kts | 21° |
| 2026-05-04 14:03 | 19.68971 | 110.19011 | 26349 ft | 464 kts | 21° |
| 2026-05-04 14:03 | 19.71910 | 110.20437 | 26589 ft | 466 kts | 21° |
| 2026-05-04 14:03 | 19.74861 | 110.21870 | 26832 ft | 467 kts | 21° |
| 2026-05-04 14:03 | 19.77825 | 110.23309 | 27055 ft | 469 kts | 20° |
| 2026-05-04 14:04 | 19.83788 | 110.26201 | 27512 ft | 473 kts | 20° |
| 2026-05-04 14:04 | 19.86787 | 110.27653 | 27743 ft | 474 kts | 20° |
| 2026-05-04 14:04 | 19.88816 | 110.28635 | 27897 ft | 476 kts | 20° |
| 2026-05-04 14:05 | 19.94820 | 110.31551 | 28321 ft | 479 kts | 20° |
| 2026-05-04 14:05 | 19.97897 | 110.33051 | 28546 ft | 481 kts | 20° |
| 2026-05-04 14:05 | 20.00903 | 110.34516 | 28753 ft | 483 kts | 20° |
| 2026-05-04 14:06 | 20.04032 | 110.35933 | 28949 ft | 481 kts | 14° |
| 2026-05-04 14:06 | 20.07202 | 110.36822 | 29138 ft | 476 kts | 5° |
| 2026-05-04 14:06 | 20.10478 | 110.37171 | 29323 ft | 471 kts | 355° |
| 2026-05-04 14:06 | 20.13734 | 110.36968 | 29507 ft | 466 kts | 346° |
| 2026-05-04 14:07 | 20.16914 | 110.36330 | 29696 ft | 465 kts | 343° |
| 2026-05-04 14:07 | 20.20091 | 110.35651 | 29911 ft | 467 kts | 343° |
| 2026-05-04 14:07 | 20.23279 | 110.34976 | 30094 ft | 468 kts | 343° |
| 2026-05-04 14:07 | 20.26483 | 110.34301 | 30286 ft | 469 kts | 343° |
| 2026-05-04 14:08 | 20.29690 | 110.33629 | 30471 ft | 470 kts | 343° |
| 2026-05-04 14:08 | 20.32892 | 110.32956 | 30741 ft | 469 kts | 343° |
| 2026-05-04 14:08 | 20.36090 | 110.32285 | 31032 ft | 467 kts | 343° |
| 2026-05-04 14:08 | 20.39277 | 110.31614 | 31327 ft | 466 kts | 343° |
| 2026-05-04 14:09 | 20.45610 | 110.30270 | 31931 ft | 463 kts | 343° |
| 2026-05-04 14:09 | 20.48774 | 110.29641 | 32227 ft | 464 kts | 347° |
| 2026-05-04 14:10 | 20.55281 | 110.29672 | 32821 ft | 470 kts | 358° |
| 2026-05-04 14:10 | 20.58540 | 110.29897 | 33122 ft | 469 kts | 358° |
| 2026-05-04 14:10 | 20.61784 | 110.30117 | 33424 ft | 467 kts | 358° |
| 2026-05-04 14:10 | 20.65028 | 110.30330 | 33729 ft | 466 kts | 358° |
| 2026-05-04 14:11 | 20.68256 | 110.30538 | 34033 ft | 464 kts | 357° |
| 2026-05-04 14:11 | 20.74692 | 110.30953 | 34540 ft | 462 kts | 357° |
| 2026-05-04 14:11 | 20.77895 | 110.31159 | 34783 ft | 461 kts | 357° |
| 2026-05-04 14:12 | 20.81055 | 110.31363 | 35016 ft | 461 kts | 357° |
| 2026-05-04 14:12 | 20.84253 | 110.31573 | 35125 ft | 460 kts | 358° |
| 2026-05-04 14:13 | 20.93756 | 110.32205 | 35158 ft | 454 kts | 357° |
| 2026-05-04 14:13 | 21.00059 | 110.32620 | 35159 ft | 454 kts | 357° |
| 2026-05-04 14:14 | 21.06367 | 110.32984 | 35157 ft | 454 kts | 357° |
| 2026-05-04 14:14 | 21.12612 | 110.34403 | 35158 ft | 470 kts | 18° |
| 2026-05-04 14:14 | 21.15508 | 110.36068 | 35157 ft | 478 kts | 30° |
| 2026-05-04 14:15 | 21.20465 | 110.40924 | 35154 ft | 486 kts | 41° |
| 2026-05-04 14:15 | 21.25202 | 110.46109 | 35152 ft | 487 kts | 41° |
| 2026-05-04 14:16 | 21.32331 | 110.53899 | 35157 ft | 488 kts | 41° |
| 2026-05-04 14:17 | 21.39432 | 110.61662 | 35158 ft | 488 kts | 41° |
| 2026-05-04 14:18 | 21.46566 | 110.69479 | 35159 ft | 489 kts | 41° |
| 2026-05-04 14:19 | 21.56072 | 110.79938 | 35165 ft | 490 kts | 41° |
| 2026-05-04 14:19 | 21.60826 | 110.85179 | 35168 ft | 490 kts | 41° |
| 2026-05-04 14:20 | 21.65582 | 110.90418 | 35168 ft | 490 kts | 41° |
| 2026-05-04 14:20 | 21.70346 | 110.95659 | 35171 ft | 490 kts | 41° |
| 2026-05-04 14:21 | 21.77555 | 111.03604 | 35172 ft | 502 kts | 41° |
| 2026-05-04 14:21 | 21.82434 | 111.08999 | 35173 ft | 509 kts | 41° |
| 2026-05-04 14:22 | 21.87367 | 111.14471 | 35172 ft | 510 kts | 41° |
| 2026-05-04 14:22 | 21.92311 | 111.19952 | 35177 ft | 510 kts | 41° |
| 2026-05-04 14:23 | 21.99743 | 111.28185 | 35188 ft | 511 kts | 41° |
| 2026-05-04 14:24 | 22.04704 | 111.33684 | 35195 ft | 511 kts | 41° |
| 2026-05-04 14:24 | 22.09652 | 111.39192 | 35197 ft | 512 kts | 41° |
| 2026-05-04 14:25 | 22.14604 | 111.44713 | 35201 ft | 512 kts | 41° |
| 2026-05-04 14:25 | 22.22045 | 111.52994 | 35197 ft | 512 kts | 41° |
| 2026-05-04 14:26 | 22.26998 | 111.58523 | 35195 ft | 512 kts | 41° |
| 2026-05-04 14:26 | 22.31948 | 111.64060 | 35189 ft | 512 kts | 41° |
| 2026-05-04 14:27 | 22.36898 | 111.69594 | 35189 ft | 512 kts | 41° |
| 2026-05-04 14:27 | 22.41854 | 111.75137 | 35185 ft | 512 kts | 41° |
| 2026-05-04 14:28 | 22.46765 | 111.80652 | 35185 ft | 513 kts | 41° |
| 2026-05-04 14:28 | 22.51713 | 111.86209 | 35170 ft | 513 kts | 41° |
| 2026-05-04 14:29 | 22.61617 | 111.97340 | 35178 ft | 513 kts | 41° |
| 2026-05-04 14:30 | 22.66566 | 112.02903 | 35168 ft | 514 kts | 41° |
| 2026-05-04 14:30 | 22.71597 | 112.08559 | 33400 ft | 530 kts | 41° |
| 2026-05-04 14:31 | 22.74130 | 112.11418 | 33068 ft | 519 kts | 41° |
| 2026-05-04 14:31 | 22.78991 | 112.16938 | 32798 ft | 492 kts | 41° |
| 2026-05-04 14:32 | 22.83627 | 112.22184 | 32273 ft | 474 kts | 41° |
| 2026-05-04 14:32 | 22.85902 | 112.24752 | 31857 ft | 471 kts | 41° |
| 2026-05-04 14:32 | 22.88167 | 112.27305 | 31409 ft | 468 kts | 41° |
| 2026-05-04 14:32 | 22.90416 | 112.29846 | 30945 ft | 466 kts | 41° |
| 2026-05-04 14:33 | 22.92655 | 112.32379 | 30466 ft | 464 kts | 41° |
| 2026-05-04 14:33 | 22.94885 | 112.34903 | 29968 ft | 463 kts | 41° |
| 2026-05-04 14:33 | 22.97103 | 112.37419 | 29485 ft | 460 kts | 41° |
| 2026-05-04 14:33 | 22.99305 | 112.39919 | 29023 ft | 456 kts | 41° |
| 2026-05-04 14:34 | 23.01482 | 112.42399 | 28566 ft | 453 kts | 44° |
| 2026-05-04 14:34 | 23.03259 | 112.45215 | 28137 ft | 455 kts | 66° |
| 2026-05-04 14:34 | 23.04018 | 112.48517 | 27699 ft | 450 kts | 90° |
| 2026-05-04 14:34 | 23.03649 | 112.51832 | 27247 ft | 438 kts | 114° |
| 2026-05-04 14:35 | 23.02243 | 112.54660 | 26809 ft | 418 kts | 137° |
| 2026-05-04 14:35 | 23.00288 | 112.56958 | 26637 ft | 415 kts | 141° |
| 2026-05-04 14:35 | 22.98270 | 112.59140 | 26661 ft | 416 kts | 142° |
| 2026-05-04 14:35 | 22.96200 | 112.61345 | 26664 ft | 418 kts | 140° |
| 2026-05-04 14:36 | 22.94400 | 112.63860 | 26655 ft | 429 kts | 125° |
| 2026-05-04 14:36 | 22.93169 | 112.66854 | 25948 ft | 445 kts | 108° |
| 2026-05-04 14:36 | 22.92716 | 112.70202 | 25423 ft | 448 kts | 97° |
| 2026-05-04 14:36 | 22.92415 | 112.73518 | 25296 ft | 435 kts | 98° |
| 2026-05-04 14:37 | 22.92061 | 112.76749 | 25021 ft | 428 kts | 99° |
| 2026-05-04 14:37 | 22.91668 | 112.79927 | 24673 ft | 423 kts | 100° |
| 2026-05-04 14:37 | 22.91259 | 112.83077 | 24306 ft | 420 kts | 100° |
| 2026-05-04 14:37 | 22.90842 | 112.86243 | 23462 ft | 430 kts | 100° |
| 2026-05-04 14:38 | 22.90421 | 112.89478 | 22046 ft | 437 kts | 100° |
| 2026-05-04 14:38 | 22.90006 | 112.92746 | 20820 ft | 437 kts | 99° |
| 2026-05-04 14:38 | 22.89604 | 112.95996 | 19784 ft | 432 kts | 99° |
| 2026-05-04 14:38 | 22.89215 | 112.99200 | 18824 ft | 426 kts | 99° |
| 2026-05-04 14:39 | 22.88832 | 113.02366 | 17764 ft | 421 kts | 99° |
| 2026-05-04 14:39 | 22.88451 | 113.05498 | 16660 ft | 417 kts | 99° |
| 2026-05-04 14:39 | 22.88070 | 113.08596 | 15595 ft | 412 kts | 99° |
| 2026-05-04 14:40 | 22.87282 | 113.14666 | 13559 ft | 399 kts | 105° |
| 2026-05-04 14:40 | 22.86343 | 113.17436 | 12499 ft | 386 kts | 123° |
| 2026-05-04 14:40 | 22.84783 | 113.19726 | 11513 ft | 371 kts | 139° |
| 2026-05-04 14:40 | 22.82788 | 113.21403 | 10612 ft | 356 kts | 155° |
| 2026-05-04 14:41 | 22.80584 | 113.22373 | 10205 ft | 328 kts | 170° |
| 2026-05-04 14:41 | 22.78447 | 113.22722 | 10054 ft | 295 kts | 182° |
| 2026-05-04 14:41 | 22.74715 | 113.22053 | 10033 ft | 252 kts | 205° |
| 2026-05-04 14:42 | 22.71883 | 113.20190 | 9485 ft | 233 kts | 225° |
| 2026-05-04 14:42 | 22.70780 | 113.18920 | 9104 ft | 230 kts | 234° |
| 2026-05-04 14:42 | 22.69943 | 113.17462 | 8719 ft | 227 kts | 250° |
| 2026-05-04 14:43 | 22.69702 | 113.15795 | 8369 ft | 225 kts | 275° |
| 2026-05-04 14:43 | 22.70214 | 113.14196 | 8244 ft | 229 kts | 301° |
| 2026-05-04 14:43 | 22.71389 | 113.13022 | 8123 ft | 236 kts | 329° |
| 2026-05-04 14:43 | 22.72991 | 113.12603 | 7998 ft | 243 kts | 358° |
| 2026-05-04 14:44 | 22.74666 | 113.12739 | 7754 ft | 247 kts | 2° |
| 2026-05-04 14:44 | 22.76370 | 113.12899 | 7474 ft | 244 kts | 2° |
| 2026-05-04 14:44 | 22.78057 | 113.13056 | 7281 ft | 242 kts | 2° |
| 2026-05-04 14:44 | 22.79727 | 113.13210 | 7117 ft | 240 kts | 2° |
| 2026-05-04 14:45 | 22.81393 | 113.13363 | 6935 ft | 240 kts | 2° |
| 2026-05-04 14:45 | 22.83055 | 113.13517 | 6748 ft | 239 kts | 2° |
| 2026-05-04 14:45 | 22.84709 | 113.13668 | 6556 ft | 238 kts | 2° |
| 2026-05-04 14:45 | 22.86352 | 113.13815 | 6364 ft | 237 kts | 2° |
| 2026-05-04 14:46 | 22.87986 | 113.14061 | 6158 ft | 238 kts | 12° |
| 2026-05-04 14:46 | 22.89590 | 113.14497 | 5964 ft | 237 kts | 12° |
| 2026-05-04 14:46 | 22.91190 | 113.14928 | 5769 ft | 236 kts | 13° |
| 2026-05-04 14:46 | 22.92779 | 113.15356 | 5569 ft | 235 kts | 13° |
| 2026-05-04 14:47 | 22.94364 | 113.15782 | 5376 ft | 234 kts | 13° |
| 2026-05-04 14:47 | 22.95941 | 113.16206 | 5185 ft | 233 kts | 13° |
| 2026-05-04 14:47 | 22.97496 | 113.16623 | 5006 ft | 228 kts | 13° |
| 2026-05-04 14:47 | 22.98955 | 113.17015 | 4800 ft | 204 kts | 14° |
| 2026-05-04 14:48 | 23.00256 | 113.17363 | 4617 ft | 186 kts | 14° |
| 2026-05-04 14:48 | 23.01551 | 113.17708 | 4446 ft | 195 kts | 14° |
| 2026-05-04 14:48 | 23.02877 | 113.18060 | 4327 ft | 197 kts | 14° |
| 2026-05-04 14:48 | 23.04203 | 113.18414 | 4208 ft | 197 kts | 14° |
| 2026-05-04 14:49 | 23.05532 | 113.18771 | 4080 ft | 196 kts | 14° |
| 2026-05-04 14:49 | 23.06859 | 113.19127 | 3960 ft | 196 kts | 15° |
| 2026-05-04 14:49 | 23.08184 | 113.19483 | 3837 ft | 196 kts | 15° |
| 2026-05-04 14:49 | 23.09508 | 113.19839 | 3720 ft | 196 kts | 15° |
| 2026-05-04 14:50 | 23.10832 | 113.20194 | 3595 ft | 196 kts | 15° |
| 2026-05-04 14:50 | 23.12139 | 113.20546 | 3479 ft | 200 kts | 15° |
| 2026-05-04 14:50 | 23.13499 | 113.20911 | 3361 ft | 204 kts | 15° |
| 2026-05-04 14:50 | 23.14884 | 113.21284 | 3240 ft | 205 kts | 15° |
| 2026-05-04 14:51 | 23.16269 | 113.21656 | 3115 ft | 205 kts | 15° |
| 2026-05-04 14:51 | 23.17652 | 113.22028 | 2994 ft | 205 kts | 15° |
| 2026-05-04 14:51 | 23.19033 | 113.22399 | 2860 ft | 204 kts | 15° |
| 2026-05-04 14:51 | 23.20409 | 113.22770 | 2664 ft | 203 kts | 15° |
| 2026-05-04 14:52 | 23.21775 | 113.23137 | 2463 ft | 202 kts | 16° |
| 2026-05-04 14:52 | 23.23139 | 113.23504 | 2274 ft | 201 kts | 16° |
| 2026-05-04 14:52 | 23.24475 | 113.23864 | 2068 ft | 189 kts | 16° |
| 2026-05-04 14:52 | 23.25674 | 113.24185 | 1865 ft | 171 kts | 16° |
| 2026-05-04 14:53 | 23.26774 | 113.24481 | 1673 ft | 158 kts | 16° |
| 2026-05-04 14:53 | 23.27818 | 113.24763 | 1469 ft | 153 kts | 16° |
| 2026-05-04 14:53 | 23.28813 | 113.25123 | 1256 ft | 149 kts | 27° |
| 2026-05-04 14:53 | 23.29721 | 113.25657 | 1151 ft | 148 kts | 31° |
| 2026-05-04 14:54 | 23.30328 | 113.26025 | 1109 ft | 148 kts | 31° |
| 2026-05-04 14:54 | 23.31241 | 113.26542 | 1009 ft | 148 kts | 26° |
| 2026-05-04 14:54 | 23.32230 | 113.26869 | 934 ft | 149 kts | 14° |
| 2026-05-04 14:54 | 23.33237 | 113.27123 | 842 ft | 149 kts | 13° |
| 2026-05-04 14:55 | 23.34242 | 113.27374 | 745 ft | 149 kts | 15° |
| 2026-05-04 14:55 | 23.35239 | 113.27672 | 525 ft | 147 kts | 16° |
| 2026-05-04 14:55 | 23.36216 | 113.27949 | 388 ft | 147 kts | 15° |
| 2026-05-04 14:55 | 23.37207 | 113.28212 | 219 ft | 146 kts | 14° |
| 2026-05-04 14:56 | 23.38188 | 113.28480 | 67 ft | 138 kts | 15° |
| 2026-05-04 14:56 | 23.39004 | 113.28705 | 57 ft | 95 kts | 14° |
| 2026-05-04 14:56 | 23.39471 | 113.28837 | 51 ft | 45 kts | 14° |
| 2026-05-04 14:56 | 23.39644 | 113.28881 | 53 ft | 18 kts | 12° |
| 2026-05-04 14:57 | 23.39763 | 113.28950 | 57 ft | 22 kts | 38° |
| 2026-05-04 14:57 | 23.39895 | 113.29080 | 55 ft | 29 kts | 42° |
| 2026-05-04 14:57 | 23.40038 | 113.29180 | 52 ft | 25 kts | 15° |
| 2026-05-04 14:57 | 23.40222 | 113.29230 | 52 ft | 30 kts | 14° |
| 2026-05-04 14:58 | 23.40325 | 113.29261 | 55 ft | 11 kts | 28° |
| 2026-05-04 14:58 | 23.40329 | 113.29324 | 53 ft | 8 kts | 101° |
| 2026-05-04 14:58 | 23.40315 | 113.29390 | 55 ft | 12 kts | 111° |
| 2026-05-04 14:58 | 23.40278 | 113.29492 | 56 ft | 18 kts | 105° |
| 2026-05-04 14:59 | 23.40256 | 113.29586 | 52 ft | 10 kts | 104° |
| 2026-05-04 14:59 | 23.40230 | 113.29648 | 52 ft | 9 kts | 142° |
| 2026-05-04 14:59 | 23.40185 | 113.29689 | 55 ft | 2 kts | 85° |
| 2026-05-04 15:00 | 23.40194 | 113.29719 | 54 ft | 4 kts | 74° |
| 2026-05-04 15:00 | 23.40194 | 113.29721 | 54 ft | 0 kts | 74° |
| 2026-05-04 15:00 | 23.40195 | 113.29724 | 55 ft | 2 kts | 74° |
| 2026-05-04 15:01 | 23.40197 | 113.29730 | 56 ft | 0 kts | 74° |